Friday, February 27, 2015, 10:13 AM EST
Back to Local

KCXY, Harrisburg Capital City

Location: New Cumberland, PA, United States Lat: 40.217
Local Time: 10:13 AM EST (15:13 GMT) Lon: -76.85
Time Zone: US/Eastern Elev: 347 ft

Show me the last for .
Show Coded

Time T Td Feel RH Dir Speed Gust Alt SLP Vis Weather Sky Remarks
2015-02-27 08:56 19 5 10 53 340° 7 - 30.42 30.44 10 CLR None
2015-02-27 07:56 16 4 7 58 360° 6 - 30.39 30.41 10 FEW045 None
2015-02-27 06:56 16 6 6 64 330° 7 - 30.35 30.37 10 FEW045 6-hr Precip Total (7am): 0.00"
6-hr Min Temp (7am): 16.0°F
6-hr Max Temp (7am): 26.1°F
2015-02-27 05:56 18 8 8 64 340° 8 - 30.31 30.33 10 OVC044 1-hr Precip Total: Trace
2015-02-27 04:56 19 10 8 67 330° 9 - 30.28 30.30 10 OVC030 1-hr Precip Total: Trace
2015-02-27 04:35 20 11 11 67 350° 7 - 30.27 - 6 -SN FEW027 OVC033 1-hr Precip Total: Trace
2015-02-27 04:24 20 12 9 70 350° 9 - 30.26 - 6 -SN OVC029 1-hr Precip Total: Trace
2015-02-27 04:16 20 12 10 70 350° 8 - 30.25 - 8 SCT026 BKN031 OVC039 None
2015-02-27 03:56 21 13 11 70 330° 9 - 30.24 30.26 6 HZ BKN025 OVC038 None
2015-02-27 02:56 22 13 13 67 330° 7 - 30.20 30.22 10 BKN024 OVC044 None
2015-02-27 02:26 23 14 16 67 330° 6 - 30.20 - 10 SCT027 OVC043 None
2015-02-27 01:56 24 13 18 61 340° 5 - 30.19 30.20 10 OVC028 None
2015-02-27 01:45 24 13 17 61 320° 6 - 30.19 - 10 BKN029 OVC043 None
2015-02-27 00:56 26 13 21 56 320° 5 - 30.16 30.18 10 OVC050 6-hr Min Temp (1am): 25.0°F
6-hr Max Temp (1am): 27.0°F
2015-02-26 23:56 25 13 - 59 - Calm - 30.15 30.16 10 BKN030 BKN038 BKN050 24-hr Min Temp (12am): 21.9°F
24-hr Max Temp (12am): 30.9°F
2015-02-26 22:56 27 13 22 54 330° 5 - 30.12 30.14 10 BKN045 OVC055 None
2015-02-26 21:56 27 14 23 57 290° 3 - 30.13 30.14 10 SCT035 BKN050 OVC060 None
2015-02-26 20:56 27 14 20 57 290° 6 - 30.11 30.13 10 BKN037 OVC055 None
2015-02-26 19:56 27 14 22 57 290° 5 - 30.09 30.10 10 FEW044 OVC050 None
2015-02-26 18:56 27 15 20 60 300° 6 - 30.06 30.08 10 OVC044 6-hr Min Temp (7pm): 27.0°F
6-hr Max Temp (7pm): 30.9°F
2015-02-26 17:56 28 16 22 60 330° 6 - 30.02 30.03 10 FEW095 None
2015-02-26 16:56 28 17 22 62 330° 6 - 29.99 30.00 10 BKN055 OVC065 None
2015-02-26 15:56 29 16 21 57 330° 8 - 29.98 30.00 10 BKN090 None
2015-02-26 14:56 29 16 21 57 320° 8 - 29.95 29.97 10 OVC090 None
2015-02-26 13:56 30 16 24 55 330° 6 - 29.93 29.95 10 OVC095 None
2015-02-26 12:56 28 17 20 62 90° 8 - 29.94 29.95 10 CLR 6-hr Precip Total (1pm): 0.00"
6-hr Min Temp (1pm): 21.9°F
6-hr Max Temp (1pm): 28.0°F
2015-02-26 11:56 25 15 19 65 30° 5 - 29.95 29.97 10 FEW025 1-hr Precip Total: Trace
2015-02-26 11:09 23 15 12 71 40° 10 - 29.98 - 9 SCT018 BKN033 BKN080 1-hr Precip Total: Trace
2015-02-26 10:56 23 15 16 71 10° 6 - 29.99 30.01 9 -SN FEW018 OVC027 1-hr Precip Total: Trace
2015-02-26 10:38 23 15 15 71 20° 7 - 29.98 - 4 -SN BKN023 OVC030 1-hr Precip Total: Trace
2015-02-26 10:20 22 14 13 71 40° 8 - 29.98 - 2 -SN BKN024 OVC035 1-hr Precip Total: Trace

Support USWX by starting your Amazon purchase here.